Bombay, Minnesota
Current Conditions -  °F | °C
As of 10:14 PM on Wednesday 22 Oct 2014 (Local Time) from KSYN Reporting Station
Broken Clouds Broken Clouds  
Wind Chill: 56°   Ceiling: 10000
Heat Index: 56°   Visibility: 10mi
Dew Point: 40°   Wind: 10mph
Humidity: 55%   Direction: 190°S
Pressure: 30.07"   Gusts: 20mph
Location:  44.2435°N, 92.9583°W
Report Text: KSYN 230314Z AUTO 19009G17KT 10SM SCT060 BKN100 14/05 A3007 RMK AO2 T01350045
Loading
Personal Weather Stations






























Interactive Weather Map
Tropical Storm Tracking
New forecast layout! Learn more

10-Day Weather Forecast

Advertisements
Track Severe Weather on mobile